createdAt,value
2018-04-07T00:02:14.566Z,12.29
2018-04-07T00:04:42.192Z,12.27
2018-04-07T00:07:09.890Z,12.27
2018-04-07T00:09:37.692Z,12.27
2018-04-07T00:12:05.347Z,12.26
2018-04-07T00:14:32.959Z,12.24
2018-04-07T00:17:00.569Z,12.22
2018-04-07T00:19:28.214Z,12.17
2018-04-07T00:21:55.828Z,12.11
2018-04-07T00:24:23.467Z,12.14
2018-04-07T00:26:51.056Z,12.12
2018-04-07T00:29:18.678Z,12.05
2018-04-07T00:31:46.276Z,12.01
2018-04-07T00:34:13.926Z,12.00
2018-04-07T00:36:41.523Z,11.93
2018-04-07T00:39:09.416Z,11.91
2018-04-07T00:41:37.089Z,11.91
2018-04-07T00:44:04.740Z,11.89
2018-04-07T00:46:32.363Z,11.84
2018-04-07T00:49:00.006Z,11.88
2018-04-07T00:51:27.604Z,11.88
2018-04-07T00:53:55.263Z,11.86
2018-04-07T00:56:22.861Z,11.88
2018-04-07T00:58:50.498Z,11.87
2018-04-07T01:01:18.106Z,11.86
2018-04-07T01:03:45.793Z,11.85
2018-04-07T01:06:13.455Z,11.84
2018-04-07T01:08:41.049Z,11.80
2018-04-07T01:11:08.687Z,11.79
2018-04-07T01:13:36.283Z,11.76
2018-04-07T01:16:03.918Z,11.76
2018-04-07T01:18:31.507Z,11.70
2018-04-07T01:20:59.159Z,11.74
2018-04-07T01:23:26.746Z,11.74
2018-04-07T01:25:54.381Z,11.72
2018-04-07T01:28:22.016Z,11.73
2018-04-07T01:30:49.642Z,11.75
2018-04-07T01:33:17.237Z,11.79
2018-04-07T01:35:44.861Z,11.75
2018-04-07T01:38:12.490Z,11.79
2018-04-07T01:40:40.193Z,11.71
2018-04-07T01:43:07.796Z,11.67
2018-04-07T01:45:35.446Z,11.67
2018-04-07T01:48:03.114Z,11.72
2018-04-07T01:50:30.739Z,11.63
2018-04-07T01:52:58.352Z,11.55
2018-04-07T01:55:25.981Z,11.44
2018-04-07T01:57:53.589Z,11.42
2018-04-07T02:00:21.186Z,11.37
2018-04-07T02:02:48.814Z,11.34
2018-04-07T02:05:16.410Z,11.34
2018-04-07T02:07:44.033Z,11.44
2018-04-07T02:10:11.626Z,11.45
2018-04-07T02:12:39.337Z,11.40
2018-04-07T02:15:06.950Z,11.37
2018-04-07T02:17:34.633Z,11.34
2018-04-07T02:20:02.239Z,11.29
2018-04-07T02:22:29.897Z,11.31
2018-04-07T02:24:57.482Z,11.27
2018-04-07T02:27:25.144Z,11.31
2018-04-07T02:29:52.746Z,11.32
2018-04-07T02:32:20.377Z,11.29
2018-04-07T02:34:48.004Z,11.31
2018-04-07T02:37:15.626Z,11.30
2018-04-07T02:39:43.236Z,11.34
2018-04-07T02:42:10.870Z,11.34
2018-04-07T02:44:38.511Z,11.33
2018-04-07T02:47:06.235Z,11.35
2018-04-07T02:49:33.841Z,11.32
2018-04-07T02:52:01.438Z,11.28
2018-04-07T02:54:29.170Z,11.28
2018-04-07T02:56:56.806Z,11.32
2018-04-07T02:59:24.546Z,11.31
2018-04-07T03:01:52.205Z,11.30
2018-04-07T03:04:19.860Z,11.32
2018-04-07T03:06:47.527Z,11.29
2018-04-07T03:09:15.161Z,11.28
2018-04-07T03:11:42.758Z,11.21
2018-04-07T03:14:10.395Z,11.16
2018-04-07T03:16:37.983Z,11.16
2018-04-07T03:19:05.627Z,11.13
2018-04-07T03:21:33.229Z,11.14
2018-04-07T03:24:00.970Z,11.12
2018-04-07T03:26:28.595Z,11.07
2018-04-07T03:28:56.306Z,11.04
2018-04-07T03:31:23.891Z,10.98
2018-04-07T03:33:51.579Z,10.98
2018-04-07T03:36:19.183Z,10.98
2018-04-07T03:38:46.783Z,10.99
2018-04-07T03:41:14.439Z,10.97
2018-04-07T03:43:42.032Z,10.94
2018-04-07T03:46:09.694Z,10.93
2018-04-07T03:48:37.287Z,10.87
2018-04-07T03:51:05.302Z,10.89
2018-04-07T03:53:32.888Z,10.87
2018-04-07T03:56:00.562Z,10.86
2018-04-07T03:58:28.175Z,10.79
2018-04-07T04:00:55.803Z,10.80
2018-04-07T04:03:23.524Z,10.80
2018-04-07T04:05:51.222Z,10.79
2018-04-07T04:08:18.990Z,10.75
2018-04-07T04:10:46.630Z,10.72
2018-04-07T04:13:14.349Z,10.71
2018-04-07T04:15:41.979Z,10.66
2018-04-07T04:18:09.575Z,10.66
2018-04-07T04:20:37.235Z,10.65
2018-04-07T04:23:04.852Z,10.66
2018-04-07T04:25:32.470Z,10.63
2018-04-07T04:28:00.092Z,10.61
2018-04-07T04:30:27.708Z,10.56
2018-04-07T04:32:55.329Z,10.54
2018-04-07T04:35:22.916Z,10.53
2018-04-07T04:37:50.563Z,10.45
2018-04-07T04:40:18.161Z,10.49
2018-04-07T04:42:45.818Z,10.45
2018-04-07T04:45:13.411Z,10.47
2018-04-07T04:47:41.051Z,10.48
2018-04-07T04:50:08.650Z,10.45
2018-04-07T04:52:36.278Z,10.46
2018-04-07T04:55:03.907Z,10.42
2018-04-07T04:57:31.489Z,10.35
2018-04-07T04:59:59.070Z,10.32
2018-04-07T05:02:26.706Z,10.34
2018-04-07T05:04:54.305Z,10.31
2018-04-07T05:07:21.959Z,10.30
2018-04-07T05:09:49.559Z,10.27
2018-04-07T05:12:17.291Z,10.32
2018-04-07T05:14:44.898Z,10.34
2018-04-07T05:17:12.550Z,10.33
2018-04-07T05:19:40.150Z,10.31
2018-04-07T05:22:07.783Z,10.32
2018-04-07T05:24:35.405Z,10.28
2018-04-07T05:27:03.082Z,10.31
2018-04-07T05:29:30.756Z,10.34
2018-04-07T05:31:58.345Z,10.34
2018-04-07T05:34:25.967Z,10.34
2018-04-07T05:36:53.560Z,10.36
2018-04-07T05:39:21.184Z,10.35
2018-04-07T05:41:48.787Z,10.40
2018-04-07T05:44:16.508Z,10.41
2018-04-07T05:46:44.101Z,10.42
2018-04-07T05:49:11.794Z,10.47
2018-04-07T05:51:39.389Z,10.53
2018-04-07T05:54:07.013Z,10.55
2018-04-07T05:56:34.614Z,10.61
2018-04-07T05:59:02.247Z,10.64
2018-04-07T06:01:29.830Z,10.66
2018-04-07T06:03:57.454Z,10.71
2018-04-07T06:06:25.054Z,10.71
2018-04-07T06:08:52.688Z,10.75
2018-04-07T06:11:20.282Z,10.82
2018-04-07T06:13:48.042Z,10.85
2018-04-07T06:16:15.638Z,10.88
2018-04-07T06:18:43.321Z,10.93
2018-04-07T06:21:10.923Z,10.98
2018-04-07T06:23:38.549Z,11.01
2018-04-07T06:26:06.171Z,11.02
2018-04-07T06:28:33.762Z,11.08
2018-04-07T06:31:01.396Z,11.11
2018-04-07T06:33:28.982Z,11.18
2018-04-07T06:35:56.621Z,11.22
2018-04-07T06:38:24.231Z,11.28
2018-04-07T06:40:51.911Z,11.33
2018-04-07T06:43:19.518Z,11.39
2018-04-07T06:45:47.204Z,11.43
2018-04-07T06:48:14.793Z,11.50
2018-04-07T06:50:42.438Z,11.56
2018-04-07T06:53:10.035Z,11.62
2018-04-07T06:55:37.814Z,11.63
2018-04-07T06:58:05.406Z,11.70
2018-04-07T07:00:33.095Z,11.74
2018-04-07T07:03:00.664Z,11.79
2018-04-07T07:05:28.316Z,11.87
2018-04-07T07:07:55.930Z,11.94
2018-04-07T07:10:23.587Z,11.96
2018-04-07T07:12:51.169Z,12.00
2018-04-07T07:15:18.757Z,12.05
2018-04-07T07:17:46.392Z,12.14
2018-04-07T07:20:14.082Z,12.20
2018-04-07T07:22:41.737Z,12.29
2018-04-07T07:25:09.336Z,12.34
2018-04-07T07:27:36.964Z,12.37
2018-04-07T07:30:04.548Z,12.39
2018-04-07T07:32:32.181Z,12.50
2018-04-07T07:34:59.766Z,12.56
2018-04-07T07:37:27.440Z,12.67
2018-04-07T07:39:55.039Z,12.76
2018-04-07T07:42:22.666Z,12.82
2018-04-07T07:44:50.314Z,12.90
2018-04-07T07:47:17.947Z,12.89
2018-04-07T07:49:45.559Z,12.93
2018-04-07T07:52:13.188Z,13.03
2018-04-07T07:54:40.795Z,13.10
2018-04-07T07:57:08.426Z,13.20
2018-04-07T07:59:36.070Z,13.23
2018-04-07T08:02:03.873Z,13.30
2018-04-07T08:04:31.492Z,13.47
2018-04-07T08:06:59.102Z,13.56
2018-04-07T08:09:26.710Z,13.62
2018-04-07T08:11:54.322Z,13.67
2018-04-07T08:14:22.025Z,13.73
2018-04-07T08:16:49.621Z,13.82
2018-04-07T08:19:17.247Z,13.93
2018-04-07T08:21:44.850Z,14.06
2018-04-07T08:24:12.475Z,14.13
2018-04-07T08:26:40.092Z,14.20
2018-04-07T08:29:07.740Z,14.37
2018-04-07T08:31:35.351Z,14.44
2018-04-07T08:34:02.974Z,14.46
2018-04-07T08:36:30.582Z,14.65
2018-04-07T08:38:58.259Z,14.78
2018-04-07T08:41:25.859Z,14.86
2018-04-07T08:43:53.488Z,14.91
2018-04-07T08:46:21.113Z,15.04
2018-04-07T08:48:48.812Z,15.16
2018-04-07T08:51:16.584Z,15.28
2018-04-07T08:53:44.238Z,15.40
2018-04-07T08:56:11.883Z,15.36
2018-04-07T08:58:39.478Z,15.43
2018-04-07T09:01:07.369Z,15.58
2018-04-07T09:03:35.013Z,15.70
2018-04-07T09:06:02.666Z,15.79
2018-04-07T09:08:30.313Z,15.82
2018-04-07T09:10:57.942Z,15.90
2018-04-07T09:13:25.550Z,15.92
2018-04-07T09:15:53.257Z,16.04
2018-04-07T09:18:20.862Z,16.20
2018-04-07T09:20:48.558Z,16.26
2018-04-07T09:23:16.235Z,16.30
2018-04-07T09:25:43.907Z,16.49
2018-04-07T09:28:11.501Z,16.64
2018-04-07T09:30:39.235Z,16.61
2018-04-07T09:33:06.905Z,16.68
2018-04-07T09:35:34.614Z,16.73
2018-04-07T09:38:02.379Z,16.84
2018-04-07T09:40:30.006Z,17.06
2018-04-07T09:42:57.762Z,17.11
2018-04-07T09:45:25.382Z,17.08
2018-04-07T09:47:53.060Z,17.15
2018-04-07T09:50:20.685Z,17.32
2018-04-07T09:52:48.338Z,17.33
2018-04-07T09:55:15.979Z,17.46
2018-04-07T09:57:43.626Z,17.57
2018-04-07T10:00:11.239Z,17.66
2018-04-07T10:02:38.927Z,17.72
2018-04-07T10:05:06.600Z,17.98
2018-04-07T10:07:34.270Z,18.16
2018-04-07T10:10:01.895Z,18.32
2018-04-07T10:12:29.588Z,18.41
2018-04-07T10:14:57.218Z,18.39
2018-04-07T10:17:24.928Z,18.49
2018-04-07T10:19:52.564Z,18.68
2018-04-07T10:22:20.491Z,18.79
2018-04-07T10:24:48.107Z,19.03
2018-04-07T10:27:15.841Z,19.09
2018-04-07T10:29:43.580Z,19.09
2018-04-07T10:32:11.272Z,19.13
2018-04-07T10:34:39.093Z,19.15
2018-04-07T10:37:06.810Z,19.32
2018-04-07T10:39:34.452Z,19.56
2018-04-07T10:42:02.100Z,19.67
2018-04-07T10:44:29.767Z,19.80
2018-04-07T10:46:57.504Z,20.01
2018-04-07T10:49:25.319Z,20.17
2018-04-07T10:51:52.946Z,20.33
2018-04-07T10:54:20.671Z,20.26
2018-04-07T10:56:48.278Z,20.48
2018-04-07T10:59:15.952Z,20.58
2018-04-07T11:01:43.566Z,20.61
2018-04-07T11:04:11.334Z,20.65
2018-04-07T11:06:38.946Z,20.71
2018-04-07T11:09:06.650Z,20.58
2018-04-07T11:11:34.343Z,20.74
2018-04-07T11:14:02.056Z,20.98
2018-04-07T11:16:29.738Z,21.38
2018-04-07T11:18:57.373Z,21.66
2018-04-07T11:21:25.213Z,21.94
2018-04-07T11:23:52.903Z,21.99
2018-04-07T11:26:20.551Z,21.92
2018-04-07T11:28:48.166Z,21.83
2018-04-07T11:31:15.831Z,21.89
2018-04-07T11:33:43.476Z,21.84
2018-04-07T11:36:11.215Z,21.90
2018-04-07T11:38:38.915Z,21.88
2018-04-07T11:41:06.569Z,21.91
2018-04-07T11:43:34.191Z,22.12
2018-04-07T11:46:01.883Z,21.96
2018-04-07T11:48:29.509Z,21.94
2018-04-07T11:50:57.153Z,22.10
2018-04-07T11:53:24.779Z,22.18
2018-04-07T11:55:52.400Z,22.04
2018-04-07T11:58:20.031Z,22.01
2018-04-07T12:00:47.722Z,22.28
2018-04-07T12:03:15.418Z,22.48
2018-04-07T12:05:43.008Z,22.79
2018-04-07T12:08:10.675Z,23.05
2018-04-07T12:10:38.263Z,23.04
2018-04-07T12:13:05.923Z,22.96
2018-04-07T12:15:33.577Z,22.79
2018-04-07T12:18:01.216Z,22.98
2018-04-07T12:20:28.839Z,22.95
2018-04-07T12:22:56.486Z,23.02
2018-04-07T12:25:24.085Z,23.23
2018-04-07T12:27:51.746Z,23.59
2018-04-07T12:30:19.358Z,23.70
2018-04-07T12:32:47.000Z,23.77
2018-04-07T12:35:14.603Z,23.75
2018-04-07T12:37:42.239Z,24.00
2018-04-07T12:40:09.822Z,24.01
2018-04-07T12:42:37.474Z,23.99
2018-04-07T12:45:05.135Z,24.01
2018-04-07T12:47:32.722Z,24.28
2018-04-07T12:50:00.371Z,24.40
2018-04-07T12:52:28.022Z,24.51
2018-04-07T12:54:55.647Z,24.69
2018-04-07T12:57:23.264Z,24.50
2018-04-07T12:59:50.924Z,24.51
2018-04-07T13:02:18.522Z,24.78
2018-04-07T13:04:46.173Z,25.08
2018-04-07T13:07:13.883Z,24.78
2018-04-07T13:09:41.626Z,24.70
2018-04-07T13:12:09.210Z,24.75
2018-04-07T13:14:36.872Z,24.95
2018-04-07T13:17:04.468Z,25.23
2018-04-07T13:19:32.099Z,25.26
2018-04-07T13:21:59.762Z,25.45
2018-04-07T13:24:27.407Z,25.15
2018-04-07T13:26:55.030Z,25.19
2018-04-07T13:29:22.696Z,25.46
2018-04-07T13:31:50.290Z,25.57
2018-04-07T13:34:18.051Z,25.60
2018-04-07T13:36:45.644Z,25.69
2018-04-07T13:39:13.279Z,25.90
2018-04-07T13:41:40.874Z,26.15
2018-04-07T13:44:08.527Z,26.19
2018-04-07T13:46:36.078Z,25.91
2018-04-07T13:49:03.686Z,25.96
2018-04-07T13:51:31.377Z,26.16
2018-04-07T13:53:58.972Z,26.08
2018-04-07T13:56:26.687Z,26.15
2018-04-07T13:58:54.346Z,26.10
2018-04-07T14:01:21.988Z,26.30
2018-04-07T14:03:49.674Z,26.24
2018-04-07T14:06:17.437Z,26.47
2018-04-07T14:08:45.027Z,26.51
2018-04-07T14:11:12.667Z,26.23
2018-04-07T14:13:40.252Z,26.00
2018-04-07T14:16:07.895Z,26.16
2018-04-07T14:18:35.496Z,26.27
2018-04-07T14:21:03.144Z,26.58
2018-04-07T14:23:30.764Z,26.51
2018-04-07T14:25:58.351Z,26.52
2018-04-07T14:28:25.991Z,26.58
2018-04-07T14:30:53.583Z,27.04
2018-04-07T14:33:21.255Z,26.76
2018-04-07T14:35:48.887Z,26.74
2018-04-07T14:38:16.535Z,26.86
2018-04-07T14:40:44.156Z,26.82
2018-04-07T14:43:11.778Z,27.12
2018-04-07T14:45:39.394Z,27.07
2018-04-07T14:48:07.026Z,27.07
2018-04-07T14:50:34.642Z,26.94
2018-04-07T14:53:02.309Z,27.06
2018-04-07T14:55:29.930Z,27.45
2018-04-07T14:57:57.570Z,27.60
2018-04-07T15:00:25.165Z,27.35
2018-04-07T15:02:52.784Z,27.22
2018-04-07T15:05:20.415Z,26.91
2018-04-07T15:07:48.069Z,26.77
2018-04-07T15:10:15.659Z,26.79
2018-04-07T15:12:43.311Z,27.01
2018-04-07T15:15:10.937Z,26.78
2018-04-07T15:17:38.533Z,26.77
2018-04-07T15:20:06.179Z,26.56
2018-04-07T15:22:33.774Z,26.78
2018-04-07T15:25:01.481Z,26.79
2018-04-07T15:27:29.098Z,26.77
2018-04-07T15:29:56.726Z,26.75
2018-04-07T15:32:24.328Z,26.97
2018-04-07T15:34:52.062Z,27.11
2018-04-07T15:37:19.690Z,26.85
2018-04-07T15:39:47.433Z,27.05
2018-04-07T15:42:15.034Z,27.04
2018-04-07T15:44:42.676Z,26.86
2018-04-07T15:47:10.294Z,26.91
2018-04-07T15:49:37.944Z,26.87
2018-04-07T15:52:05.697Z,26.77
2018-04-07T15:54:33.294Z,26.55
2018-04-07T15:57:00.929Z,26.66
2018-04-07T15:59:28.528Z,26.85
2018-04-07T16:01:56.214Z,26.76
2018-04-07T16:04:23.822Z,26.92
2018-04-07T16:06:51.486Z,26.88
2018-04-07T16:09:19.077Z,26.98
2018-04-07T16:11:46.715Z,27.06
2018-04-07T16:14:14.312Z,26.98
2018-04-07T16:16:41.958Z,26.54
2018-04-07T16:19:09.557Z,26.72
2018-04-07T16:21:37.190Z,26.73
2018-04-07T16:24:04.873Z,26.59
2018-04-07T16:26:32.531Z,26.74
2018-04-07T16:29:00.153Z,26.50
2018-04-07T16:31:27.735Z,26.39
2018-04-07T16:33:55.401Z,26.52
2018-04-07T16:36:23.064Z,26.28
2018-04-07T16:38:50.654Z,26.24
2018-04-07T16:41:18.297Z,26.04
2018-04-07T16:43:45.906Z,25.97
2018-04-07T16:46:13.628Z,25.92
2018-04-07T16:48:41.228Z,26.07
2018-04-07T16:51:08.858Z,26.26
2018-04-07T16:53:36.456Z,26.01
2018-04-07T16:56:04.048Z,25.94
2018-04-07T16:58:31.818Z,25.73
2018-04-07T17:00:59.453Z,25.57
2018-04-07T17:03:27.083Z,25.56
2018-04-07T17:05:54.690Z,25.52
2018-04-07T17:08:22.317Z,25.44
2018-04-07T17:10:49.956Z,25.54
2018-04-07T17:13:17.595Z,25.37
2018-04-07T17:15:45.191Z,25.30
2018-04-07T17:18:12.871Z,25.28
2018-04-07T17:20:40.505Z,25.10
2018-04-07T17:23:08.135Z,25.08
2018-04-07T17:25:35.788Z,25.10
2018-04-07T17:28:03.419Z,24.99
2018-04-07T17:30:31.057Z,24.71
2018-04-07T17:32:58.663Z,24.57
2018-04-07T17:35:26.308Z,24.47
2018-04-07T17:37:53.965Z,24.32
2018-04-07T17:40:21.599Z,24.18
2018-04-07T17:42:49.207Z,23.98
2018-04-07T17:45:18.478Z,23.88
2018-04-07T17:47:46.069Z,23.74
2018-04-07T17:50:13.698Z,23.75
2018-04-07T17:52:41.300Z,23.67
2018-04-07T17:55:08.940Z,23.66
2018-04-07T17:57:36.567Z,23.58
2018-04-07T18:00:04.192Z,23.56
2018-04-07T18:02:31.825Z,23.58
2018-04-07T18:04:59.486Z,23.59
2018-04-07T18:07:27.096Z,23.62
2018-04-07T18:09:54.740Z,23.60
2018-04-07T18:12:22.424Z,23.32
2018-04-07T18:14:50.056Z,23.26
2018-04-07T18:17:17.739Z,23.27
2018-04-07T18:19:45.410Z,23.08
2018-04-07T18:22:13.019Z,22.88
2018-04-07T18:24:40.702Z,22.74
2018-04-07T18:27:08.409Z,22.59
2018-04-07T18:29:36.070Z,22.56
2018-04-07T18:32:03.734Z,22.44
2018-04-07T18:34:31.331Z,22.43
2018-04-07T18:36:58.989Z,22.35
2018-04-07T18:39:26.618Z,22.28
2018-04-07T18:41:54.279Z,22.29
2018-04-07T18:44:21.888Z,22.24
2018-04-07T18:46:49.529Z,22.16
2018-04-07T18:49:17.166Z,22.09
2018-04-07T18:51:44.807Z,22.03
2018-04-07T18:54:12.508Z,21.95
2018-04-07T18:56:40.181Z,21.89
2018-04-07T18:59:07.776Z,21.81
2018-04-07T19:01:35.447Z,21.79
2018-04-07T19:04:03.075Z,21.75
2018-04-07T19:06:30.820Z,21.71
2018-04-07T19:08:58.435Z,21.63
2018-04-07T19:11:26.050Z,21.59
2018-04-07T19:13:53.683Z,21.52
2018-04-07T19:16:21.290Z,21.44
2018-04-07T19:18:48.968Z,21.48
2018-04-07T19:21:16.606Z,21.71
2018-04-07T19:23:44.243Z,21.82
2018-04-07T20:32:38.786Z,20.59
2018-04-07T20:35:06.468Z,20.74
2018-04-07T20:37:34.074Z,20.80
2018-04-07T20:40:01.727Z,20.61
2018-04-07T20:42:29.443Z,20.55
2018-04-07T20:44:57.062Z,20.67
2018-04-07T20:47:24.731Z,20.83
2018-04-07T20:49:52.377Z,20.91
2018-04-07T20:52:20.056Z,20.63
2018-04-07T20:54:47.699Z,20.29
2018-04-07T20:57:15.316Z,20.29
2018-04-07T20:59:42.921Z,20.50
2018-04-07T21:02:10.570Z,20.66
2018-04-07T21:04:38.147Z,20.35
2018-04-07T21:07:05.810Z,20.20
2018-04-07T21:09:33.411Z,20.21
2018-04-07T21:12:01.091Z,20.41
2018-04-07T21:14:28.744Z,20.54
2018-04-07T21:16:56.385Z,20.67
2018-04-07T21:19:24.000Z,20.76
2018-04-07T21:21:51.704Z,20.80
2018-04-07T21:24:19.342Z,20.87
2018-04-07T21:26:46.990Z,20.87
2018-04-07T21:29:14.737Z,20.86
2018-04-07T21:31:42.340Z,20.84
2018-04-07T21:34:09.993Z,20.81
2018-04-07T21:36:37.596Z,20.82
2018-04-07T21:39:06.007Z,20.79
2018-04-07T21:41:33.736Z,20.75
2018-04-07T21:44:01.378Z,20.73
2018-04-07T21:46:28.997Z,20.68
2018-04-07T21:48:56.633Z,20.63
2018-04-07T21:51:24.240Z,20.59
2018-04-07T21:53:51.875Z,20.56
2018-04-07T21:56:19.485Z,20.51
2018-04-07T21:58:47.238Z,20.46
2018-04-07T22:01:14.838Z,20.38
2018-04-07T22:03:42.595Z,20.34
2018-04-07T22:06:10.210Z,20.29
2018-04-07T22:08:37.895Z,20.24
2018-04-07T22:11:05.923Z,20.16
2018-04-07T22:13:33.506Z,20.10
2018-04-07T22:16:01.134Z,20.06
2018-04-07T22:18:28.750Z,20.10
2018-04-07T22:20:56.363Z,20.12
2018-04-07T22:23:23.951Z,20.10
2018-04-07T22:25:51.577Z,19.94
2018-04-07T22:28:19.177Z,19.94
2018-04-07T22:30:46.953Z,19.86
2018-04-07T22:33:14.551Z,19.87
2018-04-07T22:35:42.170Z,19.80
2018-04-07T22:38:09.802Z,19.78
2018-04-07T22:40:37.455Z,19.78
2018-04-07T22:43:05.064Z,19.69
2018-04-07T22:45:32.705Z,19.60
2018-04-07T22:48:00.333Z,19.57
2018-04-07T22:50:28.158Z,19.60
2018-04-07T22:52:55.847Z,19.56
2018-04-07T22:55:23.488Z,19.47
2018-04-07T22:57:51.184Z,19.41
2018-04-07T23:00:21.242Z,19.31
2018-04-07T23:02:48.913Z,19.09
2018-04-07T23:05:16.525Z,18.93
2018-04-07T23:07:44.232Z,18.85
2018-04-07T23:10:11.850Z,18.75
2018-04-07T23:12:39.491Z,18.77
2018-04-07T23:15:07.080Z,18.63
2018-04-07T23:17:34.810Z,18.52
2018-04-07T23:20:02.531Z,18.43
2018-04-07T23:22:30.217Z,18.33
2018-04-07T23:24:57.837Z,18.36
2018-04-07T23:27:25.455Z,18.40
2018-04-07T23:29:53.082Z,18.38
2018-04-07T23:32:20.743Z,18.35
2018-04-07T23:34:48.372Z,18.34
2018-04-07T23:37:16.010Z,18.29
2018-04-07T23:39:43.684Z,18.27
2018-04-07T23:42:11.342Z,18.21
2018-04-07T23:44:38.977Z,17.94
2018-04-07T23:47:06.601Z,17.84
2018-04-07T23:49:34.324Z,17.77
2018-04-07T23:52:01.952Z,17.73
2018-04-07T23:54:29.608Z,17.65
2018-04-07T23:56:57.257Z,17.48
2018-04-07T23:59:24.898Z,17.38
